Time;durP1;ratioP1;P1;durP2;ratioP2;P2;SDS_P1;SDS_P2;PMS_P1;PMS_P2;Temp;Humidity;BMP_temperature;BMP_pressure;BME280_temperature;BME280_humidity;BME280_pressure;Samples;Min_cycle;Max_cycle;Signal;HPM_P1;HPM_P2
2022/01/06 00:00:33;;;;;;;6.73;2.47;;;5.80;99.90;;;;;;5076101;28;20436;-48
2022/01/06 00:03:00;;;;;;;6.70;2.90;;;5.90;99.90;;;;;;5075738;28;20437;-48
2022/01/06 00:05:28;;;;;;;8.60;3.53;;;5.90;99.90;;;;;;5075772;28;20920;-47
2022/01/06 00:07:55;;;;;;;7.20;2.50;;;5.90;99.90;;;;;;5074452;28;20474;-47
2022/01/06 00:10:23;;;;;;;9.27;2.10;;;5.90;99.90;;;;;;5075719;28;20444;-47
2022/01/06 00:13:04;;;;;;;8.57;2.50;;;5.90;99.90;;;;;;5075696;28;20453;-47
2022/01/06 00:15:37;;;;;;;10.43;3.43;;;5.80;99.90;;;;;;5075999;28;20413;-48
2022/01/06 00:18:24;;;;;;;5.47;2.43;;;5.90;99.90;;;;;;5075804;28;20529;-46
2022/01/06 00:23:39;;;;;;;5.57;2.37;;;5.90;99.90;;;;;;5074999;28;20507;-47
2022/01/06 00:26:07;;;;;;;6.63;2.80;;;5.80;99.90;;;;;;5074459;28;20482;-47
2022/01/06 00:28:33;;;;;;;11.27;3.20;;;5.80;99.90;;;;;;5074621;28;20460;-48
2022/01/06 00:31:00;;;;;;;10.00;2.83;;;5.80;99.90;;;;;;5075070;28;20445;-47
2022/01/06 00:33:32;;;;;;;7.93;2.30;;;5.80;99.90;;;;;;5074837;28;20446;-47
2022/01/06 00:36:00;;;;;;;10.80;2.70;;;5.90;99.90;;;;;;5074748;28;20448;-47
2022/01/06 00:38:27;;;;;;;10.70;2.70;;;5.90;99.90;;;;;;5074890;28;20856;-48
2022/01/06 00:40:55;;;;;;;10.77;2.70;;;5.90;99.90;;;;;;5074967;28;20477;-47
2022/01/06 00:43:21;;;;;;;3.67;1.60;;;5.90;99.90;;;;;;5074949;28;20453;-48
2022/01/06 00:45:48;;;;;;;5.60;2.00;;;5.90;99.90;;;;;;5075161;28;20791;-47
2022/01/06 00:48:15;;;;;;;4.50;1.97;;;5.70;99.90;;;;;;5074846;28;20438;-47
2022/01/06 00:50:43;;;;;;;5.63;2.70;;;5.60;99.90;;;;;;5075122;28;20435;-48
2022/01/06 00:53:11;;;;;;;8.93;2.93;;;5.50;99.90;;;;;;5074758;28;20461;-47
2022/01/06 00:55:39;;;;;;;7.10;3.60;;;5.40;99.90;;;;;;5074768;28;20414;-47
2022/01/06 00:58:06;;;;;;;4.67;2.60;;;5.20;99.90;;;;;;5074142;28;20899;-47
2022/01/06 01:00:38;;;;;;;6.40;2.47;;;5.10;99.90;;;;;;5074432;28;20464;-47
2022/01/06 01:03:06;;;;;;;6.27;2.30;;;4.90;99.90;;;;;;5074618;28;20465;-48
2022/01/06 01:05:33;;;;;;;5.07;2.58;;;4.90;99.90;;;;;;5074722;28;20479;-48
2022/01/06 01:07:59;;;;;;;6.80;3.60;;;4.80;99.90;;;;;;5073873;28;20254;-48
2022/01/06 01:10:27;;;;;;;3.10;1.90;;;4.80;99.90;;;;;;5074317;28;20907;-48
2022/01/06 01:12:54;;;;;;;9.63;2.20;;;4.70;99.90;;;;;;5074809;28;20787;-47
2022/01/06 01:15:22;;;;;;;3.25;1.85;;;4.70;99.90;;;;;;5074356;28;20481;-47
2022/01/06 01:17:49;;;;;;;5.23;1.87;;;4.60;99.90;;;;;;5074542;28;20726;-48
2022/01/06 01:20:17;;;;;;;5.15;1.80;;;4.60;99.90;;;;;;5074473;28;20430;-47
2022/01/06 01:22:44;;;;;;;6.00;1.75;;;4.50;99.90;;;;;;5075559;28;20202;-48
2022/01/06 01:25:12;;;;;;;6.32;1.83;;;4.50;99.90;;;;;;5074987;28;20208;-47
2022/01/06 01:27:43;;;;;;;4.15;1.80;;;4.40;99.90;;;;;;5074699;28;20223;-46
2022/01/06 01:30:14;;;;;;;7.57;2.20;;;4.30;99.90;;;;;;5074929;28;20202;-47
2022/01/06 01:32:46;;;;;;;6.20;1.70;;;4.20;99.90;;;;;;5074857;28;20199;-46
2022/01/06 01:35:14;;;;;;;3.08;1.50;;;4.20;99.90;;;;;;5075584;28;20199;-47
2022/01/06 01:37:41;;;;;;;4.57;1.90;;;4.10;99.90;;;;;;5076655;28;20219;-46
2022/01/06 01:40:10;;;;;;;4.82;1.60;;;4.10;99.90;;;;;;5075436;28;20199;-47
2022/01/06 01:42:37;;;;;;;5.90;3.17;;;4.10;99.90;;;;;;5075145;28;20195;-47
2022/01/06 01:45:08;;;;;;;4.70;2.15;;;4.10;99.90;;;;;;5075934;28;20505;-47
2022/01/06 01:47:40;;;;;;;4.00;2.05;;;4.00;99.90;;;;;;5075856;28;20211;-46
2022/01/06 01:50:15;;;;;;;4.35;2.00;;;4.00;99.90;;;;;;5076402;28;20214;-48
2022/01/06 01:52:44;;;;;;;3.75;1.88;;;4.00;99.90;;;;;;5075373;28;20630;-47
2022/01/06 01:55:13;;;;;;;6.20;2.05;;;4.10;99.90;;;;;;5075832;28;20283;-48
2022/01/06 01:57:40;;;;;;;5.35;1.60;;;4.10;99.90;;;;;;5075054;28;20199;-47
2022/01/06 02:00:12;;;;;;;4.43;1.70;;;4.10;99.90;;;;;;5074644;28;20199;-47
2022/01/06 02:02:42;;;;;;;4.78;1.92;;;4.20;99.90;;;;;;5075499;28;20228;-48
2022/01/06 02:05:10;;;;;;;4.35;1.67;;;4.20;99.90;;;;;;5075277;28;20195;-47
2022/01/06 02:07:39;;;;;;;8.35;2.10;;;4.20;99.90;;;;;;5075191;28;20580;-47
2022/01/06 02:10:08;;;;;;;4.60;1.65;;;4.20;99.90;;;;;;5075320;28;20672;-46
2022/01/06 02:12:37;;;;;;;6.03;1.95;;;4.20;99.90;;;;;;5075284;28;20663;-48
2022/01/06 02:15:05;;;;;;;5.53;1.83;;;4.20;99.90;;;;;;5074895;28;20192;-47
2022/01/06 02:17:33;;;;;;;4.15;1.80;;;4.20;99.90;;;;;;5074441;28;20595;-47
2022/01/06 02:20:02;;;;;;;3.28;1.30;;;4.20;99.90;;;;;;5074335;28;20736;-48
2022/01/06 02:22:29;;;;;;;5.85;1.40;;;4.20;99.90;;;;;;5075135;28;20229;-47
2022/01/06 02:24:56;;;;;;;4.57;2.10;;;4.20;99.90;;;;;;5075233;28;20195;-48
2022/01/06 02:27:22;;;;;;;3.70;1.60;;;4.20;99.90;;;;;;5074751;28;20273;-47
2022/01/06 02:29:50;;;;;;;4.68;1.67;;;4.20;99.90;;;;;;5074445;28;20672;-47
2022/01/06 02:32:21;;;;;;;5.47;1.77;;;4.20;99.90;;;;;;5080803;28;20194;-47
2022/01/06 02:34:48;;;;;;;4.68;1.80;;;4.20;99.90;;;;;;5081683;28;20222;-48
2022/01/06 02:37:16;;;;;;;8.50;2.78;;;4.30;99.90;;;;;;5081522;28;20191;-47
2022/01/06 02:39:43;;;;;;;1.67;1.20;;;4.30;99.90;;;;;;5081580;28;20194;-47
2022/01/06 02:42:11;;;;;;;7.18;1.75;;;4.30;99.90;;;;;;5081742;28;20547;-47
2022/01/06 02:44:39;;;;;;;6.32;1.83;;;4.30;99.90;;;;;;5081548;28;20211;-47
2022/01/06 02:47:07;;;;;;;4.60;1.35;;;4.30;99.90;;;;;;5081971;28;20219;-46
2022/01/06 02:49:34;;;;;;;5.90;1.60;;;4.20;99.90;;;;;;5081246;28;20195;-47
2022/01/06 02:52:01;;;;;;;4.93;1.23;;;4.10;99.90;;;;;;5081944;28;20541;-47
2022/01/06 02:54:29;;;;;;;4.90;1.90;;;4.00;99.90;;;;;;5081467;28;20206;-48
2022/01/06 02:56:55;;;;;;;7.60;2.20;;;4.00;99.90;;;;;;5082561;28;20277;-47
2022/01/06 02:59:23;;;;;;;3.67;1.10;;;4.00;99.90;;;;;;5065433;28;20231;-47
2022/01/06 03:01:49;;;;;;;4.75;1.45;;;4.00;99.90;;;;;;5081364;28;20199;-47
2022/01/06 03:04:16;;;;;;;5.57;1.40;;;3.90;99.90;;;;;;5081597;28;20207;-47
2022/01/06 03:06:43;;;;;;;2.80;1.45;;;3.90;99.90;;;;;;5081405;28;20195;-47
2022/01/06 03:09:11;;;;;;;6.20;1.60;;;3.90;99.90;;;;;;5081897;28;20706;-47
2022/01/06 03:11:42;;;;;;;4.13;1.63;;;4.00;99.90;;;;;;5082266;28;20206;-47
2022/01/06 03:14:09;;;;;;;3.90;1.40;;;3.90;99.90;;;;;;5081641;28;20222;-47
2022/01/06 03:16:36;;;;;;;5.03;1.75;;;3.90;99.90;;;;;;5082266;28;20210;-47
2022/01/06 03:19:03;;;;;;;2.95;1.38;;;3.90;99.90;;;;;;5080761;28;20203;-47
2022/01/06 03:21:30;;;;;;;1.95;1.30;;;3.90;99.90;;;;;;5081912;28;20187;-47
2022/01/06 03:23:56;;;;;;;4.10;1.45;;;3.80;99.90;;;;;;5082045;28;20211;-47
2022/01/06 03:26:23;;;;;;;8.75;1.63;;;3.70;99.90;;;;;;5081896;28;20210;-48
2022/01/06 03:28:51;;;;;;;2.67;1.73;;;3.70;99.90;;;;;;5081035;28;20222;-46
2022/01/06 03:31:18;;;;;;;1.75;1.25;;;3.70;99.90;;;;;;5081843;28;20226;-48
2022/01/06 03:33:44;;;;;;;3.10;1.25;;;3.60;99.90;;;;;;5081833;28;20280;-46
2022/01/06 03:36:11;;;;;;;6.18;1.52;;;3.50;99.90;;;;;;5083116;28;20210;-47
2022/01/06 03:38:38;;;;;;;6.28;1.45;;;3.50;99.90;;;;;;5081733;28;20195;-47
2022/01/06 03:41:04;;;;;;;2.88;1.50;;;3.40;99.90;;;;;;5081768;28;20568;-47
2022/01/06 03:43:31;;;;;;;4.20;1.30;;;3.40;99.90;;;;;;5077668;28;20227;-47
2022/01/06 03:45:59;;;;;;;3.25;1.30;;;3.40;99.90;;;;;;5078741;28;20191;-48
2022/01/06 03:48:25;;;;;;;2.15;1.20;;;3.30;99.90;;;;;;5078065;28;20218;-47
2022/01/06 03:50:52;;;;;;;2.97;1.20;;;3.20;99.90;;;;;;5078232;28;20200;-47
2022/01/06 03:53:19;;;;;;;4.30;1.27;;;3.10;99.90;;;;;;5078560;28;20290;-47
2022/01/06 03:55:45;;;;;;;9.73;1.65;;;3.10;99.90;;;;;;5078296;28;20604;-48
2022/01/06 03:58:12;;;;;;;5.03;1.55;;;3.00;99.90;;;;;;5077627;28;20202;-48
2022/01/06 04:00:39;;;;;;;5.68;1.08;;;2.90;99.90;;;;;;5078081;28;20195;-47
2022/01/06 04:03:07;;;;;;;1.60;1.10;;;2.90;99.90;;;;;;5077202;28;20219;-47
2022/01/06 04:05:33;;;;;;;3.60;1.23;;;2.80;99.90;;;;;;5078063;28;20555;-47
2022/01/06 04:08:00;;;;;;;5.35;1.70;;;2.80;99.90;;;;;;5059639;28;20254;-47
2022/01/06 04:10:27;;;;;;;5.53;1.25;;;2.80;99.90;;;;;;5077745;28;20534;-47
2022/01/06 04:12:54;;;;;;;4.10;1.40;;;2.80;99.90;;;;;;5078207;28;20207;-47
2022/01/06 04:15:23;;;;;;;3.47;2.00;;;2.70;99.90;;;;;;5077359;28;20198;-47
2022/01/06 04:17:50;;;;;;;1.88;1.13;;;2.70;99.90;;;;;;5077536;28;20319;-48
2022/01/06 04:20:19;;;;;;;1.95;1.25;;;2.60;99.90;;;;;;5078665;28;20217;-47
2022/01/06 04:22:45;;;;;;;3.40;1.08;;;2.60;99.90;;;;;;5076895;28;20202;-47
2022/01/06 04:25:13;;;;;;;5.13;1.50;;;2.50;99.90;;;;;;5076825;28;20198;-47
2022/01/06 04:27:40;;;;;;;2.35;1.20;;;2.50;99.90;;;;;;5076956;28;20701;-48
2022/01/06 04:30:09;;;;;;;11.95;2.15;;;2.50;99.90;;;;;;5058155;28;20214;-47
2022/01/06 04:32:36;;;;;;;8.18;1.48;;;2.40;99.90;;;;;;5076736;28;20210;-47
2022/01/06 04:35:04;;;;;;;3.33;1.45;;;2.40;99.90;;;;;;5077739;28;20207;-47
2022/01/06 04:37:32;;;;;;;5.65;1.27;;;2.40;99.90;;;;;;5076511;28;20215;-47
2022/01/06 04:39:59;;;;;;;2.50;1.00;;;2.40;99.90;;;;;;5077467;28;20205;-47
2022/01/06 04:42:27;;;;;;;7.03;1.50;;;2.30;99.90;;;;;;5077128;28;20668;-47
2022/01/06 04:44:53;;;;;;;3.40;1.35;;;2.30;99.90;;;;;;5076383;28;20284;-47
2022/01/06 04:47:20;;;;;;;3.95;1.13;;;2.30;99.90;;;;;;5076726;28;20306;-47
2022/01/06 04:49:47;;;;;;;6.00;2.40;;;2.30;99.90;;;;;;5076375;28;20195;-47
2022/01/06 04:52:13;;;;;;;4.15;1.17;;;2.20;99.90;;;;;;5076766;28;20196;-47
2022/01/06 04:54:41;;;;;;;3.42;1.00;;;2.20;99.90;;;;;;5076061;28;20700;-47
2022/01/06 04:57:08;;;;;;;5.32;1.33;;;2.20;99.90;;;;;;5076525;28;20229;-47
2022/01/06 04:59:36;;;;;;;1.63;0.93;;;2.20;99.90;;;;;;5076805;28;20203;-47
2022/01/06 05:02:03;;;;;;;3.22;1.45;;;2.20;99.90;;;;;;5076428;28;20664;-46
2022/01/06 05:04:29;;;;;;;1.98;1.10;;;2.20;99.90;;;;;;5076691;28;20215;-46
2022/01/06 05:06:56;;;;;;;2.58;0.95;;;2.20;99.90;;;;;;5057797;28;20213;-46
2022/01/06 05:09:22;;;;;;;1.88;1.05;;;2.20;99.90;;;;;;5075936;28;20242;-47
2022/01/06 05:11:50;;;;;;;2.80;1.33;;;2.20;99.90;;;;;;5076457;28;20244;-47
2022/01/06 05:14:17;;;;;;;1.50;1.20;;;2.10;99.90;;;;;;5076285;28;20215;-47
2022/01/06 05:16:43;;;;;;;8.45;1.70;;;2.10;99.90;;;;;;5076124;28;20191;-47
2022/01/06 05:19:10;;;;;;;3.50;1.30;;;2.10;99.90;;;;;;5075780;28;20215;-47
2022/01/06 05:21:37;;;;;;;4.00;1.77;;;2.10;99.90;;;;;;5076165;28;20195;-47
2022/01/06 05:24:10;;;;;;;4.85;1.23;;;2.10;99.90;;;;;;5075584;28;20240;-47
2022/01/06 05:26:38;;;;;;;6.40;1.85;;;2.00;99.90;;;;;;5075916;28;20316;-48
2022/01/06 05:29:06;;;;;;;5.63;1.75;;;2.10;99.90;;;;;;5075467;28;20226;-47
2022/01/06 05:31:33;;;;;;;2.95;1.85;;;2.10;99.90;;;;;;5075778;28;20624;-46
2022/01/06 05:34:00;;;;;;;3.83;1.45;;;2.00;99.90;;;;;;5074215;28;20250;-44
2022/01/06 05:36:26;;;;;;;9.43;3.25;;;2.00;99.90;;;;;;5072994;28;20670;-45
2022/01/06 05:38:53;;;;;;;6.40;1.80;;;2.00;99.90;;;;;;5072042;28;20201;-46
2022/01/06 05:41:19;;;;;;;3.30;1.55;;;2.00;99.90;;;;;;5073805;28;20196;-45
2022/01/06 05:43:46;;;;;;;3.40;1.40;;;2.00;99.90;;;;;;5073856;28;20215;-51
2022/01/06 05:46:14;;;;;;;3.83;1.60;;;2.00;99.90;;;;;;5072663;28;20579;-46
2022/01/06 05:48:41;;;;;;;8.45;4.40;;;1.90;99.90;;;;;;5071459;28;20223;-46
2022/01/06 05:51:07;;;;;;;4.45;1.80;;;1.90;99.90;;;;;;5072100;28;20203;-45
2022/01/06 05:53:34;;;;;;;5.57;2.30;;;1.90;99.90;;;;;;5072024;28;20215;-45
2022/01/06 05:56:01;;;;;;;6.68;2.05;;;1.90;99.90;;;;;;5072092;28;20202;-45
2022/01/06 05:58:27;;;;;;;2.50;1.45;;;1.90;99.90;;;;;;5071564;28;20198;-45
2022/01/06 06:00:54;;;;;;;2.65;1.23;;;1.90;99.90;;;;;;5071945;28;20199;-45
2022/01/06 06:03:22;;;;;;;2.95;1.20;;;1.90;99.90;;;;;;5072033;28;20587;-44
2022/01/06 06:05:49;;;;;;;4.22;2.30;;;1.90;99.90;;;;;;5071122;28;20199;-45
2022/01/06 06:08:15;;;;;;;5.32;2.03;;;1.80;99.90;;;;;;5072018;28;20243;-45
2022/01/06 06:10:42;;;;;;;5.97;1.92;;;1.80;99.90;;;;;;5072005;28;20282;-46
2022/01/06 06:13:09;;;;;;;3.75;1.45;;;1.80;99.90;;;;;;5072094;28;20719;-45
2022/01/06 06:15:35;;;;;;;4.43;1.45;;;1.90;99.90;;;;;;5071821;28;20226;-45
2022/01/06 06:18:02;;;;;;;5.25;1.30;;;1.80;99.90;;;;;;5071576;28;20199;-45
2022/01/06 06:20:30;;;;;;;4.22;2.20;;;1.80;99.90;;;;;;5071994;28;20249;-45
2022/01/06 06:22:57;;;;;;;2.97;1.80;;;1.80;99.90;;;;;;5072019;28;20223;-45
2022/01/06 06:25:24;;;;;;;5.28;2.42;;;1.80;99.90;;;;;;5072650;28;20199;-46
2022/01/06 06:27:51;;;;;;;3.55;1.50;;;1.80;99.90;;;;;;5071287;28;20202;-45
2022/01/06 06:30:18;;;;;;;7.32;1.42;;;1.80;99.90;;;;;;5072408;28;20195;-45
2022/01/06 06:32:45;;;;;;;5.63;1.75;;;1.70;99.90;;;;;;5071943;28;20195;-47
2022/01/06 06:35:12;;;;;;;2.78;1.30;;;1.70;99.90;;;;;;5072373;28;20201;-47
2022/01/06 06:37:40;;;;;;;5.80;2.55;;;1.70;99.90;;;;;;5072219;28;20713;-45
2022/01/06 06:40:08;;;;;;;3.95;1.42;;;1.70;99.90;;;;;;5073194;28;20271;-46
2022/01/06 06:42:34;;;;;;;7.35;1.95;;;1.70;99.90;;;;;;5072820;28;20187;-45
2022/01/06 06:45:01;;;;;;;7.30;4.07;;;1.70;99.90;;;;;;5072436;28;20202;-45
2022/01/06 06:47:28;;;;;;;3.85;2.15;;;1.70;99.90;;;;;;5072072;28;20191;-47
2022/01/06 06:49:59;;;;;;;4.75;1.73;;;1.70;99.90;;;;;;5070787;28;20226;-45
2022/01/06 06:52:26;;;;;;;9.00;2.33;;;1.60;99.90;;;;;;5071257;28;20219;-46
2022/01/06 06:54:54;;;;;;;9.93;2.42;;;1.60;99.90;;;;;;5072624;28;20230;-47
2022/01/06 06:57:21;;;;;;;7.03;2.38;;;1.60;99.90;;;;;;5071386;28;20227;-46
2022/01/06 06:59:48;;;;;;;7.18;2.33;;;1.60;99.90;;;;;;5070846;28;20202;-46
2022/01/06 07:02:15;;;;;;;4.88;2.55;;;1.60;99.90;;;;;;5053150;28;20233;-47
2022/01/06 07:04:42;;;;;;;7.60;2.40;;;1.60;99.90;;;;;;5071998;28;20219;-45
2022/01/06 07:07:08;;;;;;;3.70;2.45;;;1.60;99.90;;;;;;5071537;28;20195;-44
2022/01/06 07:09:35;;;;;;;8.25;2.50;;;1.60;99.90;;;;;;5073553;28;20223;-46
2022/01/06 07:12:04;;;;;;;8.88;3.25;;;1.60;99.90;;;;;;5056696;28;20242;-46
2022/01/06 07:14:30;;;;;;;5.03;2.10;;;1.60;99.90;;;;;;5071374;28;20808;-46
2022/01/06 07:16:57;;;;;;;7.35;2.50;;;1.60;99.90;;;;;;5072347;28;20597;-47
2022/01/06 07:19:24;;;;;;;4.47;2.53;;;1.60;99.90;;;;;;5074867;28;20237;-47
2022/01/06 07:21:50;;;;;;;7.55;2.22;;;1.60;99.90;;;;;;5075447;28;20206;-46
2022/01/06 07:24:18;;;;;;;6.35;2.00;;;1.60;99.90;;;;;;5075736;28;20226;-47
2022/01/06 07:26:45;;;;;;;8.88;3.88;;;1.60;99.90;;;;;;5076003;28;20199;-46
2022/01/06 07:29:13;;;;;;;8.02;2.95;;;1.60;99.90;;;;;;5074743;28;20297;-47
2022/01/06 07:31:39;;;;;;;5.93;2.40;;;1.60;99.90;;;;;;5075194;28;20199;-47
2022/01/06 07:34:06;;;;;;;12.40;5.80;;;1.60;99.90;;;;;;5075678;28;20223;-47
2022/01/06 07:36:33;;;;;;;7.03;2.50;;;1.60;99.90;;;;;;5075008;28;20199;-46
2022/01/06 07:38:59;;;;;;;8.13;2.55;;;1.60;99.90;;;;;;5056418;28;20583;-46
2022/01/06 07:41:26;;;;;;;11.05;3.00;;;1.70;99.90;;;;;;5075357;28;20192;-47
2022/01/06 07:43:53;;;;;;;7.60;2.50;;;1.70;99.90;;;;;;5075004;28;20223;-43
2022/01/06 07:46:21;;;;;;;8.82;2.42;;;1.70;99.90;;;;;;5074979;28;20641;-46
2022/01/06 07:48:56;;;;;;;9.82;2.90;;;1.70;99.90;;;;;;5074315;28;20315;-46
2022/01/06 07:51:24;;;;;;;4.68;2.25;;;1.70;99.90;;;;;;5074750;28;20195;-46
2022/01/06 07:53:50;;;;;;;9.20;2.83;;;1.70;99.90;;;;;;5074287;28;20215;-47
2022/01/06 07:56:17;;;;;;;3.60;2.08;;;1.70;99.90;;;;;;5074975;28;20199;-46
2022/01/06 07:58:44;;;;;;;4.45;2.03;;;1.70;99.90;;;;;;5074144;28;20199;-47
2022/01/06 08:01:11;;;;;;;9.68;2.50;;;1.70;99.90;;;;;;5075096;28;20243;-47
2022/01/06 08:03:40;;;;;;;3.53;1.88;;;1.70;99.90;;;;;;5074248;28;20226;-48
2022/01/06 08:06:07;;;;;;;8.32;2.50;;;1.80;99.90;;;;;;5074051;28;20286;-47
2022/01/06 08:08:34;;;;;;;7.80;2.40;;;1.70;99.90;;;;;;5073706;28;20214;-47
2022/01/06 08:11:00;;;;;;;6.00;2.30;;;1.70;99.90;;;;;;5074922;28;20548;-45
2022/01/06 08:13:27;;;;;;;4.97;2.20;;;1.70;99.90;;;;;;5074538;28;20215;-46
2022/01/06 08:15:53;;;;;;;8.80;2.40;;;1.80;99.90;;;;;;5074111;28;20214;-46
2022/01/06 08:18:20;;;;;;;6.25;2.35;;;1.80;99.90;;;;;;5073905;28;20200;-47
2022/01/06 08:20:48;;;;;;;4.13;2.50;;;1.80;99.90;;;;;;5074044;28;20282;-45
2022/01/06 08:23:15;;;;;;;3.92;1.50;;;1.80;99.90;;;;;;5074137;28;20254;-46
2022/01/06 08:25:41;;;;;;;9.80;2.15;;;1.80;99.90;;;;;;5074467;28;20278;-46
2022/01/06 08:28:08;;;;;;;8.27;3.70;;;1.80;99.90;;;;;;5073970;28;20655;-45
2022/01/06 08:30:36;;;;;;;6.20;2.13;;;1.80;99.90;;;;;;5075157;28;20231;-46
2022/01/06 08:33:03;;;;;;;3.78;2.40;;;1.90;99.90;;;;;;5074361;28;20703;-46
2022/01/06 08:35:29;;;;;;;8.63;4.50;;;1.90;99.90;;;;;;5074480;28;20199;-46
2022/01/06 08:37:57;;;;;;;6.65;3.28;;;1.90;99.90;;;;;;5078254;28;20199;-47
2022/01/06 08:40:25;;;;;;;6.47;2.30;;;1.90;99.90;;;;;;5076104;28;20199;-46
2022/01/06 08:42:52;;;;;;;4.82;2.35;;;1.90;99.90;;;;;;5076020;28;20215;-46
2022/01/06 08:45:18;;;;;;;4.80;1.88;;;1.90;99.90;;;;;;5074479;28;20199;-45
2022/01/06 08:47:46;;;;;;;6.13;2.78;;;1.90;99.90;;;;;;5073224;28;20540;-46
2022/01/06 08:50:13;;;;;;;2.30;1.80;;;2.00;99.90;;;;;;5073785;28;20223;-45
2022/01/06 08:52:40;;;;;;;8.57;2.70;;;2.00;99.90;;;;;;5074819;28;20199;-45
2022/01/06 08:55:10;;;;;;;5.97;2.50;;;2.00;99.90;;;;;;5057947;28;20203;-46
2022/01/06 08:57:37;;;;;;;4.75;2.47;;;2.00;99.90;;;;;;5073565;28;20195;-46
2022/01/06 09:00:06;;;;;;;5.78;2.60;;;2.00;99.90;;;;;;5073498;28;20245;-46
2022/01/06 09:02:33;;;;;;;10.13;3.17;;;2.10;99.90;;;;;;5074962;28;20191;-46
2022/01/06 09:05:02;;;;;;;6.20;2.30;;;2.10;99.90;;;;;;5074989;28;20282;-47
2022/01/06 09:07:29;;;;;;;8.75;4.18;;;2.10;99.90;;;;;;5074395;28;20554;-45
2022/01/06 09:09:55;;;;;;;6.57;2.85;;;2.10;99.90;;;;;;5073377;28;20227;-47
2022/01/06 09:12:23;;;;;;;5.07;2.70;;;2.10;99.90;;;;;;5073797;28;20199;-46
2022/01/06 09:14:50;;;;;;;4.93;2.22;;;2.20;99.90;;;;;;5073467;28;20222;-48
2022/01/06 09:17:17;;;;;;;5.70;2.42;;;2.20;99.90;;;;;;5073849;28;20205;-47
2022/01/06 09:19:44;;;;;;;6.88;2.78;;;2.20;99.90;;;;;;5073435;28;20196;-46
2022/01/06 09:22:10;;;;;;;6.32;2.35;;;2.20;99.90;;;;;;5073635;28;20563;-46
2022/01/06 09:24:37;;;;;;;5.40;2.25;;;2.30;99.90;;;;;;5073226;28;20216;-46
2022/01/06 09:27:04;;;;;;;6.55;2.58;;;2.30;99.90;;;;;;5073529;28;20259;-46
2022/01/06 09:29:32;;;;;;;5.88;2.47;;;2.30;99.90;;;;;;5072860;28;20695;-46
2022/01/06 09:31:58;;;;;;;15.18;3.65;;;2.30;99.90;;;;;;5073787;28;20617;-47
2022/01/06 09:34:25;;;;;;;7.03;3.13;;;2.40;99.90;;;;;;5074237;28;20234;-45
2022/01/06 09:36:52;;;;;;;8.95;3.28;;;2.40;99.90;;;;;;5073113;28;20195;-45
2022/01/06 09:39:18;;;;;;;5.25;2.60;;;2.40;99.90;;;;;;5072391;28;20199;-45
2022/01/06 09:41:45;;;;;;;5.70;2.55;;;2.40;99.90;;;;;;5071361;28;20203;-45
2022/01/06 09:44:12;;;;;;;9.13;2.55;;;2.50;99.90;;;;;;5073143;28;20231;-45
2022/01/06 09:46:39;;;;;;;4.07;2.78;;;2.50;99.90;;;;;;5072762;28;20215;-46
2022/01/06 09:49:07;;;;;;;11.70;2.90;;;2.50;99.90;;;;;;5072448;28;20730;-46
2022/01/06 09:51:33;;;;;;;8.45;2.85;;;2.50;99.90;;;;;;5072149;28;20203;-46
2022/01/06 09:54:01;;;;;;;10.43;3.38;;;2.50;99.90;;;;;;5072141;28;20215;-46
2022/01/06 09:56:29;;;;;;;3.53;2.50;;;2.60;99.90;;;;;;5072880;28;20199;-46
2022/01/06 09:58:55;;;;;;;5.50;2.47;;;2.60;99.90;;;;;;5073086;28;20269;-45
2022/01/06 10:01:23;;;;;;;6.45;2.80;;;2.60;99.90;;;;;;5072524;28;20187;-46
2022/01/06 10:03:51;;;;;;;11.35;2.78;;;2.60;99.90;;;;;;5072424;28;20228;-45
2022/01/06 10:06:21;;;;;;;4.70;2.50;;;2.70;99.90;;;;;;5071933;28;20195;-47
2022/01/06 10:08:53;;;;;;;10.20;3.50;;;2.60;99.90;;;;;;5071782;28;20199;-45
2022/01/06 10:11:24;;;;;;;8.75;3.38;;;2.70;99.90;;;;;;5072281;28;20214;-45
2022/01/06 10:13:56;;;;;;;5.30;2.00;;;2.80;99.90;;;;;;5071647;28;20219;-44
2022/01/06 10:16:24;;;;;;;5.13;2.20;;;2.80;99.90;;;;;;5072565;28;20264;-45
2022/01/06 10:19:04;;;;;;;6.20;2.85;;;2.70;99.90;;;;;;5071910;28;20560;-45
2022/01/06 10:21:32;;;;;;;5.00;2.22;;;2.80;99.90;;;;;;5072009;28;20203;-46
2022/01/06 10:24:04;;;;;;;8.57;2.78;;;2.80;99.90;;;;;;5072157;28;20313;-47
2022/01/06 10:26:32;;;;;;;9.35;2.70;;;2.90;99.90;;;;;;5071698;28;20195;-46
2022/01/06 10:28:58;;;;;;;6.63;2.40;;;2.90;99.90;;;;;;5071547;28;20191;-46
2022/01/06 10:31:27;;;;;;;4.35;2.85;;;2.90;99.90;;;;;;5053445;28;20210;-46
2022/01/06 10:33:54;;;;;;;2.45;1.88;;;2.90;99.90;;;;;;5071346;28;20223;-46
2022/01/06 10:36:28;;;;;;;5.20;1.80;;;2.90;99.90;;;;;;5071601;28;20602;-45
2022/01/06 10:38:55;;;;;;;4.57;2.40;;;3.00;99.90;;;;;;5052990;28;20207;-45
2022/01/06 10:41:22;;;;;;;2.65;1.52;;;3.00;99.90;;;;;;5071373;28;20222;-45
2022/01/06 10:43:51;;;;;;;8.23;2.15;;;3.00;99.90;;;;;;5071285;28;20225;-45
2022/01/06 10:46:32;;;;;;;4.15;2.05;;;3.10;99.90;;;;;;5071759;28;20226;-45
2022/01/06 10:49:00;;;;;;;4.18;2.20;;;3.10;99.90;;;;;;5071113;28;20660;-45
2022/01/06 10:51:41;;;;;;;3.35;2.53;;;3.10;99.90;;;;;;5071953;28;20203;-45
2022/01/06 10:54:16;;;;;;;12.75;2.85;;;3.10;99.90;;;;;;5075435;28;20225;-46
2022/01/06 10:56:44;;;;;;;2.75;1.40;;;3.10;99.90;;;;;;5075538;28;20202;-46
2022/01/06 10:59:11;;;;;;;4.07;1.95;;;3.10;99.90;;;;;;5075718;28;20329;-45
2022/01/06 11:01:38;;;;;;;6.43;2.00;;;3.10;99.90;;;;;;5075563;28;20503;-45
2022/01/06 11:04:05;;;;;;;5.05;1.95;;;3.20;99.90;;;;;;5075468;28;20226;-45
2022/01/06 11:06:32;;;;;;;5.03;2.63;;;3.20;99.90;;;;;;5076293;28;20612;-44
2022/01/06 11:09:00;;;;;;;8.60;3.30;;;3.20;99.90;;;;;;5075753;28;20199;-46
2022/01/06 11:11:45;;;;;;;6.35;2.22;;;3.20;99.90;;;;;;5075319;28;20196;-47
2022/01/06 11:14:17;;;;;;;6.75;2.00;;;3.20;99.90;;;;;;5075846;28;20696;-44
2022/01/06 11:16:44;;;;;;;5.70;1.80;;;3.20;99.90;;;;;;5075760;28;20199;-46
2022/01/06 11:19:12;;;;;;;4.50;2.28;;;3.30;99.90;;;;;;5075334;28;20249;-46
2022/01/06 11:21:42;;;;;;;3.70;1.45;;;3.30;99.90;;;;;;5077170;28;20199;-47
2022/01/06 11:24:15;;;;;;;7.18;1.75;;;3.30;99.90;;;;;;5076141;28;20215;-46
2022/01/06 11:26:44;;;;;;;3.92;2.42;;;3.30;99.90;;;;;;5076378;28;20198;-45
2022/01/06 11:29:13;;;;;;;11.00;2.30;;;3.40;99.90;;;;;;5075431;28;20196;-45
2022/01/06 11:31:42;;;;;;;7.45;1.90;;;3.40;99.90;;;;;;5077304;28;20195;-46
2022/01/06 11:34:14;;;;;;;2.88;1.98;;;3.40;99.90;;;;;;5075434;28;20230;-47
2022/01/06 11:36:40;;;;;;;11.13;2.38;;;3.40;99.90;;;;;;5073735;28;20195;-47
2022/01/06 11:39:09;;;;;;;4.43;1.88;;;3.40;99.90;;;;;;5073860;28;20199;-47
2022/01/06 11:41:40;;;;;;;8.55;2.33;;;3.40;99.90;;;;;;5074078;28;20315;-47
2022/01/06 11:44:17;;;;;;;4.25;1.70;;;3.40;99.90;;;;;;5073883;28;20219;-47
2022/01/06 11:46:45;;;;;;;6.00;2.00;;;3.40;99.90;;;;;;5074073;28;20673;-48
2022/01/06 11:49:12;;;;;;;2.85;1.88;;;3.40;99.90;;;;;;5073765;28;20197;-47
2022/01/06 11:51:39;;;;;;;4.60;1.85;;;3.40;99.40;;;;;;5055916;28;20202;-47
2022/01/06 11:54:15;;;;;;;2.83;1.35;;;3.50;99.20;;;;;;5073057;28;20219;-47
2022/01/06 11:56:48;;;;;;;10.20;2.25;;;3.50;98.80;;;;;;5055558;28;20330;-46
2022/01/06 11:59:15;;;;;;;5.05;1.90;;;3.50;98.60;;;;;;5073057;28;20195;-46
2022/01/06 12:01:46;;;;;;;10.52;3.22;;;3.60;98.80;;;;;;5073075;28;20207;-47
2022/01/06 12:04:17;;;;;;;2.83;1.70;;;3.30;98.60;;;;;;5072606;28;20207;-47
2022/01/06 12:06:44;;;;;;;5.15;1.60;;;3.60;99.20;;;;;;5073274;28;20195;-46
2022/01/06 12:09:18;;;;;;;3.88;1.92;;;3.70;99.30;;;;;;5072751;28;20199;-47
2022/01/06 12:11:47;;;;;;;4.72;1.67;;;3.70;99.10;;;;;;5073059;28;20695;-47
2022/01/06 12:14:24;;;;;;;3.78;1.77;;;3.70;99.20;;;;;;5073292;28;20664;-47
2022/01/06 12:16:52;;;;;;;6.10;2.10;;;3.70;98.40;;;;;;5073700;28;20734;-46
2022/01/06 12:19:20;;;;;;;3.20;1.50;;;3.70;98.50;;;;;;5073384;28;20210;-48
2022/01/06 12:21:48;;;;;;;4.70;2.00;;;3.70;96.90;;;;;;5073212;28;20191;-47
2022/01/06 12:24:16;;;;;;;6.68;2.15;;;3.70;95.60;;;;;;5072954;28;20215;-46
2022/01/06 12:26:44;;;;;;;8.20;1.50;;;3.70;96.30;;;;;;5072976;28;20199;-47
2022/01/06 12:29:15;;;;;;;11.77;1.60;;;3.70;95.80;;;;;;5072944;28;20210;-47
2022/01/06 12:31:42;;;;;;;9.38;1.50;;;3.80;95.40;;;;;;5073561;28;20255;-47
2022/01/06 12:34:11;;;;;;;5.15;1.90;;;3.70;95.10;;;;;;5073433;28;20598;-47
2022/01/06 12:36:42;;;;;;;3.60;1.98;;;3.80;95.50;;;;;;5072965;28;20268;-47
2022/01/06 12:39:11;;;;;;;4.78;1.70;;;3.80;95.10;;;;;;5072590;28;20693;-47
2022/01/06 12:41:39;;;;;;;4.75;2.05;;;3.80;95.10;;;;;;5072957;28;20210;-48
2022/01/06 12:44:06;;;;;;;4.40;1.58;;;3.80;94.80;;;;;;5072827;28;20223;-47
2022/01/06 12:46:37;;;;;;;9.95;2.05;;;3.80;94.20;;;;;;5072768;28;20191;-46
2022/01/06 12:49:07;;;;;;;4.20;1.52;;;3.80;94.00;;;;;;5072870;28;20199;-47
2022/01/06 12:51:36;;;;;;;4.90;1.67;;;3.70;93.90;;;;;;5072442;28;20226;-47
2022/01/06 12:54:04;;;;;;;7.25;1.40;;;3.80;94.40;;;;;;5072774;28;20217;-47
2022/01/06 12:56:32;;;;;;;5.50;1.50;;;3.80;92.90;;;;;;5072511;28;20210;-46
2022/01/06 12:59:01;;;;;;;4.88;1.60;;;3.70;92.70;;;;;;5072225;28;20203;-48
2022/01/06 13:01:29;;;;;;;4.57;2.05;;;3.80;93.30;;;;;;5054319;28;20199;-47